createdAt,value
2017-11-08T00:01:00.626Z,22.77
2017-11-08T00:03:28.051Z,22.10
2017-11-08T00:05:55.476Z,24.37
2017-11-08T00:08:22.890Z,22.13
2017-11-08T00:10:50.306Z,22.53
2017-11-08T00:13:17.730Z,22.47
2017-11-08T00:15:46.005Z,22.97
2017-11-08T00:18:13.419Z,23.30
2017-11-08T00:20:41.715Z,22.70
2017-11-08T00:23:13.084Z,23.10
2017-11-08T00:25:41.846Z,23.85
2017-11-08T00:28:10.946Z,22.93
2017-11-08T00:30:38.367Z,22.27
2017-11-08T00:33:05.778Z,22.67
2017-11-08T00:35:33.225Z,22.03
2017-11-08T00:38:00.651Z,22.70
2017-11-08T00:40:28.848Z,20.83
2017-11-08T00:42:57.824Z,21.17
2017-11-08T00:45:26.014Z,20.83
2017-11-08T00:47:53.427Z,21.17
2017-11-08T00:50:20.849Z,20.90
2017-11-08T00:52:49.173Z,21.70
2017-11-08T00:55:17.401Z,20.63
2017-11-08T00:57:47.669Z,20.53
2017-11-08T01:00:15.976Z,21.97
2017-11-08T01:02:43.399Z,21.33
2017-11-08T01:05:13.266Z,20.87
2017-11-08T01:07:40.679Z,23.20
2017-11-08T01:10:08.875Z,21.93
2017-11-08T01:12:37.043Z,22.30
2017-11-08T01:15:04.452Z,22.27
2017-11-08T01:17:31.863Z,22.40
2017-11-08T01:19:59.271Z,22.03
2017-11-08T01:22:26.687Z,22.47
2017-11-08T01:24:54.113Z,21.43
2017-11-08T01:27:22.304Z,20.33
2017-11-08T01:29:49.722Z,20.97
2017-11-08T01:32:17.140Z,20.70
2017-11-08T01:34:44.555Z,21.03
2017-11-08T01:37:14.906Z,20.10
2017-11-08T01:39:47.035Z,20.23
2017-11-08T01:42:17.103Z,20.80
2017-11-08T01:44:48.526Z,20.67
2017-11-08T01:47:15.939Z,21.80
2017-11-08T01:49:43.352Z,21.80
2017-11-08T01:52:11.567Z,21.80
2017-11-08T01:54:38.986Z,21.73
2017-11-08T01:57:06.407Z,21.47
2017-11-08T01:59:34.611Z,22.37
2017-11-08T02:02:02.043Z,22.87
2017-11-08T02:04:30.223Z,23.50
2017-11-08T02:06:57.641Z,22.13
2017-11-08T02:09:25.053Z,22.93
2017-11-08T02:11:52.482Z,22.00
2017-11-08T02:14:19.995Z,22.10
2017-11-08T02:16:47.412Z,23.80
2017-11-08T02:19:16.595Z,22.73
2017-11-08T02:21:44.006Z,23.20
2017-11-08T02:24:11.439Z,23.67
2017-11-08T02:26:38.895Z,22.93
2017-11-08T02:29:06.314Z,23.57
2017-11-08T02:31:34.500Z,21.60
2017-11-08T02:34:08.556Z,22.80
2017-11-08T02:36:35.977Z,25.20
2017-11-08T02:39:03.382Z,25.13
2017-11-08T02:41:30.808Z,23.95
2017-11-08T02:43:58.268Z,23.00
2017-11-08T02:46:25.697Z,24.67
2017-11-08T02:48:53.119Z,25.67
2017-11-08T02:51:20.538Z,23.57
2017-11-08T02:53:53.799Z,23.40
2017-11-08T02:56:21.213Z,24.60
2017-11-08T02:58:49.387Z,23.30
2017-11-08T03:01:17.750Z,24.50
2017-11-08T03:03:46.074Z,22.80
2017-11-08T03:06:15.061Z,24.65
2017-11-08T03:08:44.351Z,24.80
2017-11-08T03:11:12.525Z,25.33
2017-11-08T03:13:40.716Z,24.80
2017-11-08T03:16:08.132Z,23.50
2017-11-08T03:18:35.560Z,25.90
2017-11-08T03:21:02.975Z,22.97
2017-11-08T03:23:30.490Z,24.97
2017-11-08T03:25:57.913Z,23.77
2017-11-08T03:28:25.323Z,25.70
2017-11-08T03:30:53.514Z,24.30
2017-11-08T03:33:21.695Z,23.60
2017-11-08T03:35:49.116Z,24.27
2017-11-08T03:38:16.532Z,25.13
2017-11-08T03:40:44.883Z,25.00
2017-11-08T03:43:12.467Z,26.50
2017-11-08T03:45:39.909Z,24.07
2017-11-08T03:48:08.074Z,26.70
2017-11-08T03:50:35.479Z,26.57
2017-11-08T03:53:02.894Z,26.50
2017-11-08T03:55:30.312Z,26.07
2017-11-08T03:57:57.728Z,27.53
2017-11-08T04:00:25.175Z,27.43
2017-11-08T04:02:52.586Z,27.07
2017-11-08T04:05:20.776Z,27.27
2017-11-08T04:07:48.942Z,27.17
2017-11-08T04:10:17.128Z,26.87
2017-11-08T04:12:44.550Z,28.37
2017-11-08T04:15:11.963Z,27.17
2017-11-08T04:17:39.397Z,27.80
2017-11-08T04:20:06.811Z,29.60
2017-11-08T04:22:34.229Z,29.73
2017-11-08T04:25:01.647Z,31.07
2017-11-08T04:27:29.855Z,31.57
2017-11-08T04:29:57.268Z,29.60
2017-11-08T04:32:25.449Z,30.13
2017-11-08T04:34:53.619Z,32.10
2017-11-08T04:37:21.818Z,31.30
2017-11-08T04:39:49.236Z,33.13
2017-11-08T04:42:16.863Z,32.10
2017-11-08T04:44:44.291Z,33.83
2017-11-08T04:47:11.703Z,34.07
2017-11-08T04:49:39.129Z,35.20
2017-11-08T04:52:06.563Z,33.37
2017-11-08T04:54:33.969Z,35.67
2017-11-08T04:57:01.436Z,33.63
2017-11-08T04:59:28.834Z,35.33
2017-11-08T05:01:56.265Z,33.33
2017-11-08T05:04:24.440Z,33.00
2017-11-08T05:06:51.871Z,32.73
2017-11-08T05:09:20.822Z,34.27
2017-11-08T05:11:48.233Z,34.07
2017-11-08T05:14:17.334Z,34.67
2017-11-08T05:16:45.524Z,34.30
2017-11-08T05:19:12.945Z,33.27
2017-11-08T05:21:40.386Z,33.17
2017-11-08T05:24:07.790Z,36.00
2017-11-08T05:26:35.223Z,35.63
2017-11-08T05:29:03.416Z,32.83
2017-11-08T05:31:30.845Z,33.20
2017-11-08T05:33:58.258Z,33.60
2017-11-08T05:36:25.861Z,34.75
2017-11-08T05:38:53.271Z,33.87
2017-11-08T05:41:20.699Z,37.37
2017-11-08T05:43:48.119Z,37.20
2017-11-08T05:46:15.563Z,36.13
2017-11-08T05:48:42.997Z,36.17
2017-11-08T05:51:10.400Z,35.10
2017-11-08T05:53:38.600Z,35.27
2017-11-08T05:56:06.043Z,35.03
2017-11-08T05:58:34.230Z,34.37
2017-11-08T06:01:01.640Z,34.20
2017-11-08T06:03:29.064Z,32.90
2017-11-08T06:05:56.472Z,35.20
2017-11-08T06:08:23.889Z,36.40
2017-11-08T06:10:51.312Z,36.10
2017-11-08T06:13:18.731Z,35.13
2017-11-08T06:15:46.141Z,36.20
2017-11-08T06:18:13.567Z,30.90
2017-11-08T06:20:41.751Z,34.10
2017-11-08T06:23:09.174Z,36.33
2017-11-08T06:25:36.591Z,37.10
2017-11-08T06:28:04.007Z,38.00
2017-11-08T06:30:31.427Z,37.40
2017-11-08T06:32:58.846Z,38.70
2017-11-08T06:35:26.271Z,38.27
2017-11-08T06:37:54.465Z,36.17
2017-11-08T06:40:21.884Z,37.50
2017-11-08T06:42:49.327Z,36.73
2017-11-08T06:45:16.754Z,38.23
2017-11-08T06:47:44.223Z,38.63
2017-11-08T06:50:11.643Z,39.70
2017-11-08T06:52:39.070Z,38.30
2017-11-08T06:55:07.379Z,40.60
2017-11-08T06:57:34.793Z,40.25
2017-11-08T07:00:02.994Z,40.73
2017-11-08T07:02:31.172Z,42.20
2017-11-08T07:04:58.653Z,40.23
2017-11-08T07:07:26.055Z,40.70
2017-11-08T07:09:54.475Z,40.47
2017-11-08T07:12:21.995Z,40.03
2017-11-08T07:14:50.345Z,42.10
2017-11-08T07:17:17.771Z,40.33
2017-11-08T07:19:45.281Z,40.00
2017-11-08T07:22:12.696Z,41.90
2017-11-08T07:24:40.119Z,39.80
2017-11-08T07:27:07.546Z,41.77
2017-11-08T07:29:34.970Z,39.00
2017-11-08T07:32:03.370Z,43.10
2017-11-08T07:34:30.801Z,41.57
2017-11-08T07:36:58.263Z,41.00
2017-11-08T07:39:26.695Z,40.10
2017-11-08T07:41:54.119Z,42.17
2017-11-08T07:44:21.535Z,44.50
2017-11-08T07:46:50.507Z,44.28
2017-11-08T07:49:17.926Z,43.33
2017-11-08T07:51:45.347Z,43.13
2017-11-08T07:54:12.793Z,43.10
2017-11-08T07:56:40.206Z,43.40
2017-11-08T07:59:08.421Z,41.10
2017-11-08T08:01:35.852Z,43.80
2017-11-08T08:04:04.028Z,43.90
2017-11-08T08:06:31.463Z,40.47
2017-11-08T08:08:58.889Z,39.27
2017-11-08T08:11:26.321Z,39.70
2017-11-08T08:13:58.706Z,43.17
2017-11-08T08:16:26.137Z,42.40
2017-11-08T08:18:53.557Z,43.57
2017-11-08T08:21:23.775Z,43.40
2017-11-08T08:23:51.980Z,41.40
2017-11-08T08:26:25.809Z,42.90
2017-11-08T08:28:57.059Z,43.50
2017-11-08T08:31:24.482Z,44.17
2017-11-08T08:33:51.907Z,46.23
2017-11-08T08:36:19.341Z,45.80
2017-11-08T08:38:46.755Z,43.03
2017-11-08T08:41:14.199Z,44.07
2017-11-08T08:43:42.375Z,44.63
2017-11-08T08:46:09.790Z,43.80
2017-11-08T08:48:37.215Z,42.70
2017-11-08T08:51:04.648Z,42.50
2017-11-08T08:53:33.807Z,42.03
2017-11-08T08:56:01.228Z,43.42
2017-11-08T08:58:28.650Z,42.57
2017-11-08T09:00:56.081Z,43.60
2017-11-08T09:03:23.505Z,42.17
2017-11-08T09:05:51.751Z,43.55
2017-11-08T09:08:19.307Z,44.63
2017-11-08T09:10:46.723Z,42.40
2017-11-08T09:13:15.097Z,41.43
2017-11-08T09:15:42.545Z,42.87
2017-11-08T09:18:09.956Z,43.50
2017-11-08T09:20:37.398Z,43.40
2017-11-08T09:23:06.360Z,44.20
2017-11-08T09:25:34.151Z,43.90
2017-11-08T09:28:02.349Z,45.00
2017-11-08T09:30:29.756Z,43.87
2017-11-08T09:32:57.188Z,44.70
2017-11-08T09:35:24.614Z,45.47
2017-11-08T09:37:57.782Z,43.73
2017-11-08T09:40:25.210Z,43.13
2017-11-08T09:42:52.631Z,44.63
2017-11-08T09:45:20.044Z,42.97
2017-11-08T09:47:48.227Z,43.53
2017-11-08T09:50:15.713Z,43.63
2017-11-08T09:52:43.130Z,45.53
2017-11-08T09:55:10.662Z,46.03
2017-11-08T09:57:38.104Z,40.80
2017-11-08T10:00:05.546Z,44.77
2017-11-08T10:02:34.802Z,46.17
2017-11-08T10:05:02.986Z,44.37
2017-11-08T10:07:31.828Z,46.37
2017-11-08T10:09:59.861Z,44.77
2017-11-08T10:12:28.023Z,46.10
2017-11-08T10:14:55.455Z,46.13
2017-11-08T10:17:22.875Z,47.97
2017-11-08T10:19:50.340Z,46.90
2017-11-08T10:22:17.749Z,45.53
2017-11-08T10:24:45.191Z,45.47
2017-11-08T10:27:13.386Z,51.83
2017-11-08T10:29:40.889Z,45.23
2017-11-08T10:32:08.286Z,44.87
2017-11-08T10:34:35.711Z,46.13
2017-11-08T10:37:03.127Z,46.20
2017-11-08T10:39:30.562Z,45.77
2017-11-08T10:41:58.000Z,47.63
2017-11-08T10:44:26.154Z,47.83
2017-11-08T10:46:53.575Z,43.80
2017-11-08T10:49:21.011Z,44.10
2017-11-08T10:51:48.440Z,44.30
2017-11-08T10:54:15.864Z,45.20
2017-11-08T10:56:44.048Z,45.27
2017-11-08T10:59:17.237Z,47.10
2017-11-08T11:01:45.228Z,46.00
2017-11-08T11:04:12.649Z,43.40
2017-11-08T11:06:40.833Z,44.37
2017-11-08T11:09:08.290Z,44.80
2017-11-08T11:11:36.797Z,45.20
2017-11-08T11:14:09.845Z,44.40
2017-11-08T11:16:39.501Z,45.20
2017-11-08T11:19:12.901Z,46.47
2017-11-08T11:21:40.312Z,47.73
2017-11-08T11:24:12.504Z,45.60
2017-11-08T11:26:41.859Z,49.43
2017-11-08T11:29:09.279Z,43.70
2017-11-08T11:31:36.697Z,48.07
2017-11-08T11:34:04.894Z,47.20
2017-11-08T11:36:32.465Z,48.50
2017-11-08T11:38:59.872Z,47.60
2017-11-08T11:41:27.288Z,47.63
2017-11-08T11:43:54.721Z,48.63
2017-11-08T11:46:22.149Z,45.10
2017-11-08T11:48:54.223Z,49.83
2017-11-08T11:51:25.272Z,50.10
2017-11-08T11:53:54.395Z,47.20
2017-11-08T11:56:21.803Z,50.00
2017-11-08T11:58:49.993Z,50.20
2017-11-08T12:01:18.204Z,48.37
2017-11-08T12:03:45.604Z,49.10
2017-11-08T12:06:13.828Z,51.43
2017-11-08T12:08:41.248Z,52.17
2017-11-08T12:11:09.452Z,50.67
2017-11-08T12:13:36.894Z,52.00
2017-11-08T12:16:05.095Z,48.20
2017-11-08T12:18:32.527Z,50.50
2017-11-08T12:20:59.952Z,48.50
2017-11-08T12:23:28.132Z,48.80
2017-11-08T12:25:56.320Z,47.80
2017-11-08T12:28:30.957Z,51.30
2017-11-08T12:31:02.903Z,48.20
2017-11-08T12:33:33.742Z,45.25
2017-11-08T12:36:01.917Z,47.27
2017-11-08T12:38:29.364Z,49.27
2017-11-08T12:40:56.786Z,49.10
2017-11-08T12:43:25.185Z,48.90
2017-11-08T12:45:52.583Z,49.80
2017-11-08T12:48:20.007Z,48.40
2017-11-08T12:50:48.199Z,50.00
2017-11-08T12:53:15.630Z,51.37
2017-11-08T12:55:43.064Z,50.47
2017-11-08T12:58:10.484Z,47.20
2017-11-08T13:00:37.906Z,51.70
2017-11-08T13:03:06.100Z,49.10
2017-11-08T13:05:34.351Z,49.30
2017-11-08T13:08:01.764Z,50.73
2017-11-08T13:10:30.985Z,50.17
2017-11-08T13:12:58.405Z,51.73
2017-11-08T13:15:25.827Z,48.70
2017-11-08T13:17:54.020Z,51.17
2017-11-08T13:20:21.432Z,48.97
2017-11-08T13:22:48.888Z,52.30
2017-11-08T13:25:16.325Z,50.80
2017-11-08T13:27:43.753Z,51.63
2017-11-08T13:30:11.167Z,43.17
2017-11-08T13:32:38.587Z,52.67
2017-11-08T13:35:06.017Z,51.50
2017-11-08T13:37:33.439Z,51.17
2017-11-08T13:40:03.696Z,50.77
2017-11-08T13:42:31.107Z,51.03
2017-11-08T13:44:58.520Z,50.47
2017-11-08T13:47:27.201Z,52.05
2017-11-08T13:49:54.641Z,52.20
2017-11-08T13:52:22.819Z,50.13
2017-11-08T13:54:50.327Z,52.87
2017-11-08T13:57:17.981Z,49.47
2017-11-08T13:59:45.403Z,50.07
2017-11-08T14:02:12.831Z,53.20
2017-11-08T14:04:41.054Z,49.17
2017-11-08T14:07:08.467Z,50.00
2017-11-08T14:09:36.041Z,51.77
2017-11-08T14:12:04.228Z,52.60
2017-11-08T14:14:31.643Z,48.40
2017-11-08T14:16:59.072Z,48.73
2017-11-08T14:19:27.799Z,51.08
2017-11-08T14:21:56.926Z,52.47
2017-11-08T14:24:24.335Z,52.47
2017-11-08T14:26:51.767Z,53.43
2017-11-08T14:29:21.072Z,51.53
2017-11-08T14:31:48.503Z,49.50
2017-11-08T14:34:15.934Z,49.77
2017-11-08T14:36:43.366Z,50.70
2017-11-08T14:39:11.556Z,55.23
2017-11-08T14:41:39.761Z,49.83
2017-11-08T14:44:07.171Z,51.30
2017-11-08T14:46:35.367Z,50.33
2017-11-08T14:49:02.795Z,53.35
2017-11-08T14:51:33.167Z,51.40
2017-11-08T14:54:00.560Z,51.33
2017-11-08T14:56:27.981Z,51.53
2017-11-08T14:58:55.423Z,51.63
2017-11-08T15:01:22.844Z,50.00
2017-11-08T15:03:50.256Z,50.97
2017-11-08T15:06:17.707Z,51.40
2017-11-08T15:08:45.124Z,51.03
2017-11-08T15:11:16.140Z,49.63
2017-11-08T15:13:43.545Z,49.90
2017-11-08T15:16:10.972Z,48.70
2017-11-08T15:18:39.155Z,50.83
2017-11-08T15:21:06.642Z,48.70
2017-11-08T15:23:34.055Z,49.57
2017-11-08T15:26:02.227Z,49.00
2017-11-08T15:28:30.412Z,49.30
2017-11-08T15:30:59.545Z,51.00
2017-11-08T15:33:26.964Z,49.47
2017-11-08T15:35:55.149Z,49.40
2017-11-08T15:38:22.612Z,50.03
2017-11-08T15:40:50.059Z,51.03
2017-11-08T15:43:18.411Z,51.07
2017-11-08T15:45:46.677Z,49.20
2017-11-08T15:48:14.099Z,50.70
2017-11-08T15:50:41.505Z,48.27
2017-11-08T15:53:09.694Z,49.00
2017-11-08T15:55:37.863Z,49.13
2017-11-08T15:58:05.305Z,51.10
2017-11-08T16:00:33.532Z,50.10
2017-11-08T16:03:00.924Z,51.87
2017-11-08T16:05:29.840Z,51.65
2017-11-08T16:07:58.959Z,49.53
2017-11-08T16:10:26.359Z,50.63
2017-11-08T16:12:55.681Z,52.30
2017-11-08T16:15:23.863Z,49.37
2017-11-08T16:17:52.091Z,51.60
2017-11-08T16:20:19.492Z,49.33
2017-11-08T16:22:47.686Z,51.30
2017-11-08T16:25:15.112Z,49.60
2017-11-08T16:27:43.316Z,49.50
2017-11-08T16:30:10.736Z,51.83
2017-11-08T16:32:38.159Z,49.47
2017-11-08T16:35:05.586Z,50.63
2017-11-08T16:37:33.016Z,50.33
2017-11-08T16:40:01.204Z,51.40
2017-11-08T16:42:29.559Z,52.30
2017-11-08T16:44:56.985Z,51.30
2017-11-08T16:47:24.404Z,52.83
2017-11-08T16:49:51.819Z,49.87
2017-11-08T16:52:19.255Z,51.17
2017-11-08T16:54:46.713Z,51.70
2017-11-08T16:57:14.137Z,51.23
2017-11-08T16:59:41.548Z,51.53
2017-11-08T17:02:09.735Z,53.13
2017-11-08T17:04:37.915Z,51.25
2017-11-08T17:07:05.377Z,52.17
2017-11-08T17:09:33.539Z,50.50
2017-11-08T17:12:00.973Z,51.10
2017-11-08T17:14:28.392Z,54.43
2017-11-08T17:16:55.820Z,51.60
2017-11-08T17:19:23.999Z,52.50
2017-11-08T17:21:51.416Z,53.57
2017-11-08T17:24:19.590Z,54.27
2017-11-08T17:26:47.018Z,54.60
2017-11-08T17:29:14.479Z,52.17
2017-11-08T17:31:41.896Z,51.37
2017-11-08T17:34:09.312Z,52.07
2017-11-08T17:36:36.723Z,51.77
2017-11-08T17:39:04.143Z,50.57
2017-11-08T17:41:32.323Z,53.90
2017-11-08T17:44:01.427Z,51.60
2017-11-08T17:46:28.862Z,54.10
2017-11-08T17:48:57.052Z,54.03
2017-11-08T17:51:25.223Z,53.50
2017-11-08T17:53:53.036Z,52.60
2017-11-08T17:56:20.476Z,54.50
2017-11-08T17:58:47.888Z,55.30
2017-11-08T18:01:16.076Z,53.43
2017-11-08T18:03:43.567Z,54.33
2017-11-08T18:06:10.985Z,50.40
2017-11-08T18:08:38.415Z,53.40
2017-11-08T18:11:05.827Z,53.03
2017-11-08T18:13:33.243Z,53.77
2017-11-08T18:16:02.283Z,52.28
2017-11-08T18:18:29.701Z,54.37
2017-11-08T18:20:57.158Z,54.00
2017-11-08T18:23:25.381Z,54.10
2017-11-08T18:25:52.810Z,51.95
2017-11-08T18:28:20.225Z,52.17
2017-11-08T18:30:48.412Z,52.07
2017-11-08T18:33:15.860Z,54.00
2017-11-08T18:35:44.034Z,53.90
2017-11-08T18:38:12.228Z,54.60
2017-11-08T18:40:40.431Z,53.87
2017-11-08T18:43:07.860Z,54.23
2017-11-08T18:45:35.271Z,52.23
2017-11-08T18:48:02.952Z,54.33
2017-11-08T18:50:30.363Z,53.47
2017-11-08T18:52:57.801Z,54.13
2017-11-08T18:55:25.235Z,54.03
2017-11-08T18:57:52.662Z,56.47
2017-11-08T19:00:20.084Z,54.03
2017-11-08T19:02:47.513Z,54.37
2017-11-08T19:05:14.960Z,56.07
2017-11-08T19:07:42.412Z,54.40
2017-11-08T19:10:10.701Z,56.60
2017-11-08T19:12:38.928Z,55.20
2017-11-08T19:15:06.345Z,53.73
2017-11-08T19:17:33.864Z,54.67
2017-11-08T19:20:01.276Z,53.23
2017-11-08T19:22:28.705Z,54.17
2017-11-08T19:24:56.913Z,54.97
2017-11-08T19:27:24.359Z,55.63
2017-11-08T19:29:51.826Z,54.03
2017-11-08T19:32:19.264Z,52.90
2017-11-08T19:34:46.724Z,55.30
2017-11-08T19:37:14.170Z,52.67
2017-11-08T19:39:41.637Z,53.50
2017-11-08T19:42:09.101Z,52.27
2017-11-08T19:44:36.546Z,52.80
2017-11-08T19:47:04.360Z,52.00
2017-11-08T19:49:31.794Z,52.73
2017-11-08T19:51:59.200Z,56.00
2017-11-08T19:54:26.633Z,53.17
2017-11-08T19:56:54.040Z,50.73
2017-11-08T19:59:21.466Z,50.80
2017-11-08T20:01:48.955Z,55.20
2017-11-08T20:04:16.384Z,53.90
2017-11-08T20:06:43.824Z,53.63
2017-11-08T20:09:11.233Z,53.58
2017-11-08T20:11:41.151Z,52.17
2017-11-08T20:14:08.573Z,52.70
2017-11-08T20:16:36.874Z,48.27
2017-11-08T20:19:04.282Z,51.37
2017-11-08T20:21:32.491Z,52.03
2017-11-08T20:23:59.925Z,49.97
2017-11-08T20:26:27.344Z,48.90
2017-11-08T20:28:54.770Z,51.03
2017-11-08T20:31:22.195Z,51.43
2017-11-08T20:33:49.608Z,49.10
2017-11-08T20:36:17.040Z,50.07
2017-11-08T20:38:44.451Z,51.37
2017-11-08T20:41:11.894Z,51.22
2017-11-08T20:43:40.079Z,50.50
2017-11-08T20:46:07.530Z,50.73
2017-11-08T20:48:34.944Z,50.33
2017-11-08T20:51:02.377Z,49.17
2017-11-08T20:53:30.503Z,49.80
2017-11-08T20:55:58.683Z,51.60
2017-11-08T20:58:26.867Z,53.17
2017-11-08T21:00:54.284Z,49.73
2017-11-08T21:03:21.815Z,50.20
2017-11-08T21:05:49.234Z,49.63
2017-11-08T21:08:17.440Z,50.70
2017-11-08T21:10:44.852Z,48.43
2017-11-08T21:13:13.065Z,50.60
2017-11-08T21:15:40.469Z,49.60
2017-11-08T21:18:08.731Z,51.30
2017-11-08T21:20:36.960Z,51.27
2017-11-08T21:23:05.828Z,49.85
2017-11-08T21:25:34.035Z,49.60
2017-11-08T21:28:01.450Z,51.50
2017-11-08T21:30:29.636Z,51.30
2017-11-08T21:32:57.849Z,48.60
2017-11-08T21:35:25.247Z,50.10
2017-11-08T21:37:53.435Z,49.90
2017-11-08T21:40:21.631Z,49.63
2017-11-08T21:42:49.066Z,49.87
2017-11-08T21:45:17.249Z,47.83
2017-11-08T21:47:44.672Z,49.77
2017-11-08T21:50:12.109Z,49.37
2017-11-08T21:52:39.540Z,49.10
2017-11-08T21:55:06.964Z,50.37
2017-11-08T21:57:36.072Z,50.70
2017-11-08T22:00:03.515Z,50.30
2017-11-08T22:02:30.901Z,49.00
2017-11-08T22:04:58.307Z,52.83
2017-11-08T22:07:25.811Z,50.50
2017-11-08T22:09:53.235Z,49.00
2017-11-08T22:12:21.440Z,48.70
2017-11-08T22:14:48.852Z,49.97
2017-11-08T22:17:16.277Z,50.10
2017-11-08T22:19:43.712Z,49.87
2017-11-08T22:22:11.123Z,52.40
2017-11-08T22:24:39.323Z,51.10
2017-11-08T22:27:07.503Z,51.70
2017-11-08T22:29:34.940Z,52.20
2017-11-08T22:32:05.237Z,49.37
2017-11-08T22:34:33.431Z,50.90
2017-11-08T22:37:01.616Z,50.23
2017-11-08T22:39:29.128Z,52.17
2017-11-08T22:41:56.543Z,51.83
2017-11-08T22:44:23.955Z,51.53
2017-11-08T22:46:51.380Z,51.47
2017-11-08T22:49:18.866Z,51.13
2017-11-08T22:51:46.269Z,50.90
2017-11-08T22:54:13.705Z,50.70
2017-11-08T22:56:41.109Z,49.60
2017-11-08T22:59:08.520Z,51.17
2017-11-08T23:01:36.862Z,53.00
2017-11-08T23:04:05.102Z,49.63
2017-11-08T23:06:32.523Z,51.77
2017-11-08T23:09:00.728Z,51.90
2017-11-08T23:11:29.036Z,50.10
2017-11-08T23:13:56.456Z,50.37
2017-11-08T23:16:23.884Z,56.43
2017-11-08T23:18:52.071Z,50.60
2017-11-08T23:21:19.494Z,52.33
2017-11-08T23:23:46.920Z,51.07
2017-11-08T23:26:14.340Z,52.23
2017-11-08T23:28:41.757Z,51.00
2017-11-08T23:31:09.179Z,52.93
2017-11-08T23:33:36.592Z,51.93
2017-11-08T23:36:04.798Z,49.27
2017-11-08T23:38:32.216Z,50.30
2017-11-08T23:41:00.396Z,49.37
2017-11-08T23:43:28.579Z,49.27
2017-11-08T23:45:56.004Z,48.40
2017-11-08T23:48:23.431Z,50.77
2017-11-08T23:50:50.867Z,50.70
2017-11-08T23:53:18.272Z,49.80
2017-11-08T23:55:45.704Z,49.47
2017-11-08T23:58:13.138Z,50.87
